createdAt,value
2017-07-30T00:00:26.517Z,1007.15
2017-07-30T00:01:39.089Z,1007.14
2017-07-30T00:02:51.662Z,1007.1
2017-07-30T00:04:04.260Z,1007.09
2017-07-30T00:05:16.803Z,1007.11
2017-07-30T00:06:29.056Z,1007.09
2017-07-30T00:07:41.664Z,1007.1
2017-07-30T00:08:54.266Z,1007.04
2017-07-30T00:10:06.886Z,1007.06
2017-07-30T00:11:19.227Z,1006.99
2017-07-30T00:12:31.489Z,1006.99
2017-07-30T00:13:43.793Z,1007.02
2017-07-30T00:14:56.127Z,1007.01
2017-07-30T00:16:08.439Z,1007.01
2017-07-30T00:17:20.692Z,1007.01
2017-07-30T00:18:33.240Z,1007.01
2017-07-30T00:19:45.848Z,1007
2017-07-30T00:20:58.399Z,1006.98
2017-07-30T00:22:10.390Z,1006.94
2017-07-30T00:23:22.672Z,1007
2017-07-30T00:24:35.255Z,1006.95
2017-07-30T00:25:47.879Z,1006.93
2017-07-30T00:26:59.908Z,1006.96
2017-07-30T00:28:12.180Z,1006.92
2017-07-30T00:29:24.793Z,1006.93
2017-07-30T00:30:37.397Z,1006.92
2017-07-30T00:31:50.081Z,1006.89
2017-07-30T00:33:02.682Z,1006.9
2017-07-30T00:34:15.229Z,1006.9
2017-07-30T00:35:27.855Z,1006.92
2017-07-30T00:36:40.146Z,1006.9
2017-07-30T00:37:52.792Z,1006.88
2017-07-30T00:39:05.364Z,1006.88
2017-07-30T00:40:18.028Z,1006.83
2017-07-30T00:41:30.635Z,1006.8
2017-07-30T00:42:42.994Z,1006.82
2017-07-30T00:43:55.520Z,1006.78
2017-07-30T00:45:07.761Z,1006.75
2017-07-30T00:46:20.382Z,1006.73
2017-07-30T00:47:32.639Z,1006.77
2017-07-30T00:48:45.261Z,1006.71
2017-07-30T00:49:57.820Z,1006.7
2017-07-30T00:51:10.101Z,1006.69
2017-07-30T00:52:22.667Z,1006.66
2017-07-30T00:53:35.283Z,1006.65
2017-07-30T00:54:47.886Z,1006.65
2017-07-30T00:56:00.429Z,1006.64
2017-07-30T00:57:13.025Z,1006.66
2017-07-30T00:58:25.616Z,1006.68
2017-07-30T00:59:38.152Z,1006.7
2017-07-30T01:00:50.689Z,1006.72
2017-07-30T01:02:03.261Z,1006.72
2017-07-30T01:03:15.242Z,1006.68
2017-07-30T01:04:27.824Z,1006.68
2017-07-30T01:05:40.442Z,1006.72
2017-07-30T01:06:53.011Z,1006.71
2017-07-30T01:08:05.257Z,1006.71
2017-07-30T01:09:17.883Z,1006.64
2017-07-30T01:10:29.852Z,1006.72
2017-07-30T01:11:42.470Z,1006.76
2017-07-30T01:12:54.429Z,1006.8
2017-07-30T01:14:07.021Z,1006.73
2017-07-30T01:15:19.645Z,1006.74
2017-07-30T01:16:32.272Z,1006.68
2017-07-30T01:17:44.553Z,1006.74
2017-07-30T01:18:56.873Z,1006.72
2017-07-30T01:20:09.446Z,1006.76
2017-07-30T01:21:22.271Z,1006.77
2017-07-30T01:22:34.545Z,1006.76
2017-07-30T01:23:46.831Z,1006.74
2017-07-30T01:24:59.091Z,1006.74
2017-07-30T01:26:11.652Z,1006.67
2017-07-30T01:27:24.259Z,1006.67
2017-07-30T01:28:36.875Z,1006.67
2017-07-30T01:29:49.438Z,1006.64
2017-07-30T01:31:01.410Z,1006.62
2017-07-30T01:32:13.934Z,1006.59
2017-07-30T01:33:26.526Z,1006.56
2017-07-30T01:34:39.168Z,1006.55
2017-07-30T01:35:51.794Z,1006.51
2017-07-30T01:37:03.137Z,1006.48
2017-07-30T01:38:15.714Z,1006.51
2017-07-30T01:39:28.281Z,1006.51
2017-07-30T01:40:40.946Z,1006.51
2017-07-30T01:41:53.621Z,1006.5
2017-07-30T01:43:06.176Z,1006.52
2017-07-30T01:44:18.785Z,1006.5
2017-07-30T01:45:31.356Z,1006.45
2017-07-30T01:46:43.609Z,1006.41
2017-07-30T01:47:55.926Z,1006.42
2017-07-30T01:49:08.212Z,1006.37
2017-07-30T01:50:20.523Z,1006.33
2017-07-30T01:51:33.176Z,1006.28
2017-07-30T01:52:45.457Z,1006.37
2017-07-30T01:53:57.738Z,1006.34
2017-07-30T01:55:09.709Z,1006.37
2017-07-30T01:56:22.021Z,1006.35
2017-07-30T01:57:34.606Z,1006.29
2017-07-30T01:58:46.887Z,1006.28
2017-07-30T01:59:59.425Z,1006.28
2017-07-30T02:01:12.086Z,1006.34
2017-07-30T02:02:24.685Z,1006.33
2017-07-30T02:03:37.338Z,1006.31
2017-07-30T02:04:49.341Z,1006.32
2017-07-30T02:06:01.594Z,1006.29
2017-07-30T02:07:14.236Z,1006.22
2017-07-30T02:08:26.858Z,1006.24
2017-07-30T02:09:39.453Z,1006.25
2017-07-30T02:10:51.996Z,1006.29
2017-07-30T02:12:04.203Z,1006.3
2017-07-30T02:13:16.794Z,1006.3
2017-07-30T02:14:29.416Z,1006.25
2017-07-30T02:15:41.722Z,1006.28
2017-07-30T02:16:54.282Z,1006.25
2017-07-30T02:18:06.812Z,1006.26
2017-07-30T02:19:19.068Z,1006.27
2017-07-30T02:20:31.668Z,1006.25
2017-07-30T02:21:44.185Z,1006.23
2017-07-30T02:22:56.436Z,1006.2
2017-07-30T02:24:09.030Z,1006.25
2017-07-30T02:25:21.635Z,1006.28
2017-07-30T02:26:34.219Z,1006.26
2017-07-30T02:27:46.815Z,1006.22
2017-07-30T02:28:59.384Z,1006.26
2017-07-30T02:30:11.988Z,1006.21
2017-07-30T02:31:24.669Z,1006.14
2017-07-30T02:32:37.223Z,1006.11
2017-07-30T02:33:49.819Z,1006.11
2017-07-30T02:35:02.143Z,1006.17
2017-07-30T02:36:14.696Z,1006.19
2017-07-30T02:37:27.032Z,1006.19
2017-07-30T02:38:39.638Z,1006.17
2017-07-30T02:39:52.280Z,1006.19
2017-07-30T02:41:04.880Z,1006.19
2017-07-30T02:42:17.471Z,1006.14
2017-07-30T02:43:30.035Z,1006.17
2017-07-30T02:44:42.581Z,1006.15
2017-07-30T02:45:55.146Z,1006.12
2017-07-30T02:47:07.113Z,1006.12
2017-07-30T02:48:19.751Z,1006.14
2017-07-30T02:49:32.378Z,1006.11
2017-07-30T02:50:44.661Z,1006.13
2017-07-30T02:51:56.935Z,1006.14
2017-07-30T02:53:09.514Z,1006.11
2017-07-30T02:54:22.141Z,1006.14
2017-07-30T02:55:34.784Z,1006.11
2017-07-30T02:56:47.372Z,1006.07
2017-07-30T02:57:59.966Z,1006.04
2017-07-30T02:59:12.209Z,1006.04
2017-07-30T03:00:24.546Z,1006.05
2017-07-30T03:01:37.097Z,1006.04
2017-07-30T03:02:49.410Z,1005.98
2017-07-30T03:04:01.068Z,1005.94
2017-07-30T03:05:13.649Z,1005.93
2017-07-30T03:06:26.208Z,1005.95
2017-07-30T03:07:38.230Z,1005.91
2017-07-30T03:08:50.828Z,1005.99
2017-07-30T03:10:03.325Z,1005.99
2017-07-30T03:11:15.917Z,1006.02
2017-07-30T03:12:28.573Z,1006.03
2017-07-30T03:13:41.194Z,1006.02
2017-07-30T03:14:53.755Z,1006.01
2017-07-30T03:16:06.361Z,1005.95
2017-07-30T03:17:18.907Z,1005.98
2017-07-30T03:18:30.898Z,1005.99
2017-07-30T03:19:43.199Z,1005.98
2017-07-30T03:20:56.084Z,1006.02
2017-07-30T03:22:08.728Z,1006.03
2017-07-30T03:23:21.300Z,1006.04
2017-07-30T03:24:33.889Z,1006.04
2017-07-30T03:25:46.503Z,1006.05
2017-07-30T03:26:59.127Z,1006.02
2017-07-30T03:28:11.741Z,1006.01
2017-07-30T03:29:24.332Z,1005.98
2017-07-30T03:30:36.901Z,1005.94
2017-07-30T03:31:49.521Z,1005.89
2017-07-30T03:33:02.093Z,1005.9
2017-07-30T03:34:14.663Z,1005.9
2017-07-30T03:35:27.214Z,1005.9
2017-07-30T03:36:39.813Z,1005.87
2017-07-30T03:37:52.051Z,1005.86
2017-07-30T03:39:04.347Z,1005.88
2017-07-30T03:40:16.904Z,1005.85
2017-07-30T03:41:29.479Z,1005.84
2017-07-30T03:42:41.809Z,1005.81
2017-07-30T03:43:54.067Z,1005.83
2017-07-30T03:45:06.709Z,1005.81
2017-07-30T03:46:19.361Z,1005.81
2017-07-30T03:47:31.993Z,1005.8
2017-07-30T03:48:44.630Z,1005.8
2017-07-30T03:49:57.203Z,1005.85
2017-07-30T03:51:09.788Z,1005.81
2017-07-30T03:52:22.406Z,1005.79
2017-07-30T03:53:35.288Z,1005.81
2017-07-30T03:54:47.270Z,1005.84
2017-07-30T03:55:59.554Z,1005.83
2017-07-30T03:57:11.871Z,1005.79
2017-07-30T03:58:24.532Z,1005.77
2017-07-30T03:59:37.103Z,1005.79
2017-07-30T04:00:49.356Z,1005.77
2017-07-30T04:02:01.926Z,1005.78
2017-07-30T04:03:14.189Z,1005.8
2017-07-30T04:04:26.779Z,1005.82
2017-07-30T04:05:39.340Z,1005.83
2017-07-30T04:06:51.934Z,1005.86
2017-07-30T04:08:04.530Z,1005.84
2017-07-30T04:09:16.823Z,1005.86
2017-07-30T04:10:28.802Z,1005.91
2017-07-30T04:11:41.063Z,1005.84
2017-07-30T04:12:53.608Z,1005.94
2017-07-30T04:14:05.871Z,1005.92
2017-07-30T04:15:18.150Z,1005.92
2017-07-30T04:16:30.772Z,1005.91
2017-07-30T04:17:43.066Z,1005.88
2017-07-30T04:18:55.337Z,1005.83
2017-07-30T04:20:07.898Z,1005.81
2017-07-30T04:21:20.491Z,1005.78
2017-07-30T04:22:32.780Z,1005.72
2017-07-30T04:23:44.745Z,1005.72
2017-07-30T04:24:57.330Z,1005.7
2017-07-30T04:26:09.695Z,1005.65
2017-07-30T04:27:21.959Z,1005.68
2017-07-30T04:28:34.512Z,1005.7
2017-07-30T04:29:47.132Z,1005.7
2017-07-30T04:30:59.672Z,1005.72
2017-07-30T04:32:12.253Z,1005.73
2017-07-30T04:33:24.813Z,1005.74
2017-07-30T04:34:37.435Z,1005.73
2017-07-30T04:35:49.380Z,1005.69
2017-07-30T04:37:01.585Z,1005.66
2017-07-30T04:38:14.236Z,1005.62
2017-07-30T04:39:26.604Z,1005.62
2017-07-30T04:40:39.277Z,1005.59
2017-07-30T04:41:51.599Z,1005.58
2017-07-30T04:43:03.956Z,1005.56
2017-07-30T04:44:16.575Z,1005.56
2017-07-30T04:45:28.876Z,1005.57
2017-07-30T04:46:41.468Z,1005.6
2017-07-30T04:47:53.752Z,1005.59
2017-07-30T04:49:06.100Z,1005.59
2017-07-30T04:50:18.717Z,1005.57
2017-07-30T04:51:31.039Z,1005.53
2017-07-30T04:52:43.355Z,1005.55
2017-07-30T04:53:55.930Z,1005.53
2017-07-30T04:55:07.898Z,1005.57
2017-07-30T04:56:20.535Z,1005.57
2017-07-30T04:57:32.835Z,1005.56
2017-07-30T04:58:45.456Z,1005.6
2017-07-30T04:59:58.085Z,1005.59
2017-07-30T05:01:10.032Z,1005.63
2017-07-30T05:02:22.598Z,1005.63
2017-07-30T05:03:35.214Z,1005.61
2017-07-30T05:04:47.494Z,1005.64
2017-07-30T05:05:59.804Z,1005.59
2017-07-30T05:07:12.375Z,1005.57
2017-07-30T05:08:25.002Z,1005.54
2017-07-30T05:09:37.316Z,1005.54
2017-07-30T05:10:49.640Z,1005.58
2017-07-30T05:12:02.141Z,1005.52
2017-07-30T05:13:14.404Z,1005.48
2017-07-30T05:14:26.999Z,1005.55
2017-07-30T05:15:39.646Z,1005.48
2017-07-30T05:16:51.924Z,1005.47
2017-07-30T05:18:04.568Z,1005.48
2017-07-30T05:19:17.166Z,1005.48
2017-07-30T05:20:29.803Z,1005.48
2017-07-30T05:21:42.075Z,1005.48
2017-07-30T05:22:54.095Z,1005.49
2017-07-30T05:24:06.681Z,1005.49
2017-07-30T05:25:18.970Z,1005.54
2017-07-30T05:26:30.990Z,1005.56
2017-07-30T05:27:43.583Z,1005.61
2017-07-30T05:28:56.152Z,1005.63
2017-07-30T05:30:08.422Z,1005.61
2017-07-30T05:31:21.250Z,1005.58
2017-07-30T05:32:33.825Z,1005.55
2017-07-30T05:33:46.115Z,1005.54
2017-07-30T05:34:58.705Z,1005.49
2017-07-30T05:36:10.977Z,1005.44
2017-07-30T05:37:23.551Z,1005.44
2017-07-30T05:38:35.854Z,1005.42
2017-07-30T05:39:48.155Z,1005.44
2017-07-30T05:41:00.140Z,1005.33
2017-07-30T05:42:12.410Z,1005.32
2017-07-30T05:43:24.976Z,1005.3
2017-07-30T05:44:37.585Z,1005.31
2017-07-30T05:45:50.176Z,1005.32
2017-07-30T05:47:02.746Z,1005.31
2017-07-30T05:48:15.578Z,1005.32
2017-07-30T05:49:28.181Z,1005.29
2017-07-30T05:50:40.746Z,1005.3
2017-07-30T05:51:52.999Z,1005.29
2017-07-30T05:53:05.270Z,1005.23
2017-07-30T05:54:17.821Z,1005.22
2017-07-30T05:55:30.335Z,1005.17
2017-07-30T05:56:42.925Z,1005.13
2017-07-30T05:57:55.514Z,1005.11
2017-07-30T05:59:08.378Z,1005.1
2017-07-30T06:00:20.051Z,1005.06
2017-07-30T06:01:32.647Z,1005.08
2017-07-30T06:02:45.272Z,1005.04
2017-07-30T06:03:57.558Z,1005.09
2017-07-30T06:05:10.104Z,1005.08
2017-07-30T06:06:22.690Z,1005.08
2017-07-30T06:07:35.306Z,1005.11
2017-07-30T06:08:47.893Z,1005.12
2017-07-30T06:10:00.413Z,1005.17
2017-07-30T06:11:13.000Z,1005.11
2017-07-30T06:12:24.984Z,1005.12
2017-07-30T06:13:37.311Z,1005.12
2017-07-30T06:14:49.919Z,1005.11
2017-07-30T06:16:02.222Z,1005.11
2017-07-30T06:17:14.167Z,1005.15
2017-07-30T06:18:26.813Z,1005.16
2017-07-30T06:19:38.839Z,1005.16
2017-07-30T06:20:51.076Z,1005.15
2017-07-30T06:22:03.601Z,1005.1
2017-07-30T06:23:15.868Z,1005.15
2017-07-30T06:24:28.437Z,1005.1
2017-07-30T06:25:40.962Z,1005.08
2017-07-30T06:26:53.561Z,1005.08
2017-07-30T06:28:05.557Z,1005.08
2017-07-30T06:29:18.133Z,1005.07
2017-07-30T06:30:30.774Z,1005.06
2017-07-30T06:31:43.251Z,1005.02
2017-07-30T06:32:55.790Z,1005.07
2017-07-30T06:34:08.059Z,1005.04
2017-07-30T06:35:20.602Z,1005.17
2017-07-30T06:36:33.225Z,1005.28
2017-07-30T06:37:45.861Z,1005.34
2017-07-30T06:38:58.470Z,1005.23
2017-07-30T06:40:11.133Z,1005.28
2017-07-30T06:41:23.768Z,1005.28
2017-07-30T06:42:36.411Z,1005.26
2017-07-30T06:43:48.977Z,1005.28
2017-07-30T06:45:01.556Z,1005.29
2017-07-30T06:46:14.158Z,1005.26
2017-07-30T06:47:27.002Z,1005.27
2017-07-30T06:48:39.323Z,1005.3
2017-07-30T06:49:51.894Z,1005.32
2017-07-30T06:51:03.534Z,1005.25
2017-07-30T06:52:16.169Z,1005.27
2017-07-30T06:53:28.748Z,1005.29
2017-07-30T06:54:41.311Z,1005.25
2017-07-30T06:55:53.897Z,1005.24
2017-07-30T06:57:06.514Z,1005.27
2017-07-30T06:58:19.455Z,1005.25
2017-07-30T06:59:32.060Z,1005.27
2017-07-30T07:00:44.646Z,1005.29
2017-07-30T07:01:57.001Z,1005.23
2017-07-30T07:03:09.564Z,1005.24
2017-07-30T07:04:22.211Z,1005.21
2017-07-30T07:05:34.504Z,1005.18
2017-07-30T07:06:47.143Z,1005.03
2017-07-30T07:07:59.758Z,1004.9
2017-07-30T07:09:11.466Z,1004.9
2017-07-30T07:10:24.043Z,1004.8
2017-07-30T07:11:36.680Z,1004.79
2017-07-30T07:12:49.035Z,1004.81
2017-07-30T07:14:01.671Z,1004.77
2017-07-30T07:15:14.340Z,1004.8
2017-07-30T07:16:26.291Z,1004.71
2017-07-30T07:17:38.924Z,1004.68
2017-07-30T07:18:51.302Z,1004.67
2017-07-30T07:20:03.928Z,1004.62
2017-07-30T07:21:16.537Z,1004.62
2017-07-30T07:22:28.895Z,1004.62
2017-07-30T07:23:41.479Z,1004.59
2017-07-30T07:24:53.844Z,1004.64
2017-07-30T07:26:06.490Z,1004.65
2017-07-30T07:27:19.135Z,1004.61
2017-07-30T07:28:31.757Z,1004.59
2017-07-30T07:29:44.109Z,1004.59
2017-07-30T07:30:56.390Z,1004.58
2017-07-30T07:32:08.676Z,1004.62
2017-07-30T07:33:21.290Z,1004.58
2017-07-30T07:34:33.850Z,1004.58
2017-07-30T07:35:45.851Z,1004.53
2017-07-30T07:36:58.528Z,1004.55
2017-07-30T07:38:11.221Z,1004.53
2017-07-30T07:39:23.796Z,1004.53
2017-07-30T07:40:36.129Z,1004.55
2017-07-30T07:41:49.063Z,1004.55
2017-07-30T07:43:01.733Z,1004.56
2017-07-30T07:44:14.324Z,1004.56
2017-07-30T07:45:26.939Z,1004.48
2017-07-30T07:46:39.516Z,1004.48
2017-07-30T07:47:52.180Z,1004.44
2017-07-30T07:49:04.764Z,1004.45
2017-07-30T07:50:17.072Z,1004.46
2017-07-30T07:51:29.405Z,1004.47
2017-07-30T07:52:41.988Z,1004.4
2017-07-30T07:53:54.610Z,1004.38
2017-07-30T07:55:06.895Z,1004.4
2017-07-30T07:56:19.540Z,1004.35
2017-07-30T07:57:32.159Z,1004.38
2017-07-30T07:58:44.525Z,1004.42
2017-07-30T07:59:57.114Z,1004.35
2017-07-30T08:01:08.792Z,1004.37
2017-07-30T08:02:21.092Z,1004.4
2017-07-30T08:03:33.920Z,1004.44
2017-07-30T08:04:46.597Z,1004.44
2017-07-30T08:05:59.230Z,1004.51
2017-07-30T08:07:11.538Z,1004.46
2017-07-30T08:08:24.142Z,1004.51
2017-07-30T08:09:36.442Z,1004.42
2017-07-30T08:10:48.159Z,1004.43
2017-07-30T08:12:00.697Z,1004.45
2017-07-30T08:13:12.951Z,1004.43
2017-07-30T08:14:25.564Z,1004.42
2017-07-30T08:15:37.898Z,1004.43
2017-07-30T08:16:50.457Z,1004.45
2017-07-30T08:18:02.458Z,1004.44
2017-07-30T08:19:15.030Z,1004.47
2017-07-30T08:20:27.336Z,1004.47
2017-07-30T08:21:39.979Z,1004.47
2017-07-30T08:22:52.350Z,1004.49
2017-07-30T08:24:04.686Z,1004.49
2017-07-30T08:25:16.984Z,1004.48
2017-07-30T08:26:29.286Z,1004.46
2017-07-30T08:27:41.576Z,1004.49
2017-07-30T08:28:53.920Z,1004.49
2017-07-30T08:30:06.219Z,1004.51
2017-07-30T08:31:18.912Z,1004.51
2017-07-30T08:32:31.202Z,1004.46
2017-07-30T08:33:43.534Z,1004.47
2017-07-30T08:34:55.832Z,1004.45
2017-07-30T08:36:08.127Z,1004.39
2017-07-30T08:37:20.511Z,1004.45
2017-07-30T08:38:32.484Z,1004.44
2017-07-30T08:39:44.829Z,1004.52
2017-07-30T08:40:57.153Z,1004.51
2017-07-30T08:42:09.772Z,1004.48
2017-07-30T08:43:22.069Z,1004.44
2017-07-30T08:44:34.365Z,1004.45
2017-07-30T08:45:46.676Z,1004.46
2017-07-30T08:46:59.542Z,1004.48
2017-07-30T08:48:11.535Z,1004.4
2017-07-30T08:49:24.173Z,1004.4
2017-07-30T08:50:36.796Z,1004.33
2017-07-30T08:51:48.550Z,1004.34
2017-07-30T08:53:01.164Z,1004.32
2017-07-30T08:54:13.754Z,1004.31
2017-07-30T08:55:26.078Z,1004.35
2017-07-30T08:56:38.398Z,1004.27
2017-07-30T08:57:50.710Z,1004.26
2017-07-30T08:59:03.023Z,1004.22
2017-07-30T09:00:15.652Z,1004.24
2017-07-30T09:01:28.235Z,1004.23
2017-07-30T09:02:40.802Z,1004.15
2017-07-30T09:03:53.147Z,1004.17
2017-07-30T09:05:05.420Z,1004.19
2017-07-30T09:06:17.733Z,1004.14
2017-07-30T09:07:30.361Z,1004.14
2017-07-30T09:08:42.952Z,1004.1
2017-07-30T09:09:55.510Z,1004.07
2017-07-30T09:11:07.532Z,1004.12
2017-07-30T09:12:20.188Z,1004.12
2017-07-30T09:13:32.818Z,1004.11
2017-07-30T09:14:45.068Z,1004.07
2017-07-30T09:15:57.094Z,1004.07
2017-07-30T09:17:09.721Z,1004.02
2017-07-30T09:18:22.350Z,1004.02
2017-07-30T09:19:34.956Z,1004.01
2017-07-30T09:20:47.290Z,1004.05
2017-07-30T09:21:59.873Z,1004.01
2017-07-30T09:23:12.507Z,1004.04
2017-07-30T09:24:25.116Z,1004.03
2017-07-30T09:25:37.731Z,1004.02
2017-07-30T09:26:50.397Z,1003.99
2017-07-30T09:28:02.966Z,1003.96
2017-07-30T09:29:15.587Z,1003.92
2017-07-30T09:30:28.194Z,1003.88
2017-07-30T09:31:40.828Z,1003.86
2017-07-30T09:32:53.509Z,1003.9
2017-07-30T09:34:05.772Z,1003.85
2017-07-30T09:35:18.310Z,1003.84
2017-07-30T09:36:30.964Z,1003.83
2017-07-30T09:37:43.607Z,1003.84
2017-07-30T09:38:56.206Z,1003.81
2017-07-30T09:40:08.774Z,1003.76
2017-07-30T09:41:21.039Z,1003.77
2017-07-30T09:42:33.705Z,1003.78
2017-07-30T09:43:46.012Z,1003.77
2017-07-30T09:44:58.308Z,1003.88
2017-07-30T09:46:10.872Z,1003.84
2017-07-30T09:47:23.554Z,1003.83
2017-07-30T09:48:36.171Z,1003.8
2017-07-30T09:49:48.518Z,1003.83
2017-07-30T09:51:00.830Z,1003.83
2017-07-30T09:52:13.145Z,1003.82
2017-07-30T09:53:25.729Z,1003.81
2017-07-30T09:54:38.369Z,1003.75
2017-07-30T09:55:50.984Z,1003.71
2017-07-30T09:57:03.322Z,1003.7
2017-07-30T09:58:15.601Z,1003.66
2017-07-30T09:59:28.271Z,1003.7
2017-07-30T10:00:40.560Z,1003.6
2017-07-30T10:01:52.844Z,1003.59
2017-07-30T10:03:05.665Z,1003.57
2017-07-30T10:04:18.253Z,1003.55
2017-07-30T10:05:30.889Z,1003.48
2017-07-30T10:06:43.204Z,1003.5
2017-07-30T10:07:55.783Z,1003.58
2017-07-30T10:09:07.806Z,1003.48
2017-07-30T10:10:20.403Z,1003.49
2017-07-30T10:11:32.992Z,1003.49
2017-07-30T10:12:45.618Z,1003.57
2017-07-30T10:13:58.252Z,1003.59
2017-07-30T10:15:10.908Z,1003.57
2017-07-30T10:16:23.545Z,1003.56
2017-07-30T10:17:35.898Z,1003.55
2017-07-30T10:18:47.876Z,1003.53
2017-07-30T10:20:00.494Z,1003.51
2017-07-30T10:21:13.137Z,1003.46
2017-07-30T10:22:25.711Z,1003.47
2017-07-30T10:23:38.349Z,1003.47
2017-07-30T10:24:50.963Z,1003.43
2017-07-30T10:26:03.237Z,1003.45
2017-07-30T10:27:15.520Z,1003.47
2017-07-30T10:28:28.129Z,1003.56
2017-07-30T10:29:40.803Z,1003.46
2017-07-30T10:30:53.172Z,1003.49
2017-07-30T10:32:05.497Z,1003.53
2017-07-30T10:33:17.845Z,1003.4
2017-07-30T10:34:30.133Z,1003.39
2017-07-30T10:35:42.148Z,1003.41
2017-07-30T10:36:54.468Z,1003.4
2017-07-30T10:38:06.776Z,1003.34
2017-07-30T10:39:19.355Z,1003.27
2017-07-30T10:40:31.705Z,1003.25
2017-07-30T10:41:44.304Z,1003.3
2017-07-30T10:42:56.970Z,1003.29
2017-07-30T10:44:09.614Z,1003.25
2017-07-30T10:45:22.208Z,1003.21
2017-07-30T10:46:34.800Z,1003.18
2017-07-30T10:47:47.155Z,1003.23
2017-07-30T10:48:59.453Z,1003.17
2017-07-30T10:50:12.113Z,1003.18
2017-07-30T10:51:24.710Z,1003.15
2017-07-30T10:52:37.279Z,1003.15
2017-07-30T10:53:49.700Z,1003.12
2017-07-30T10:55:02.345Z,1003.16
2017-07-30T10:56:14.967Z,1003.1
2017-07-30T10:57:27.269Z,1003.06
2017-07-30T10:58:39.894Z,1003.1
2017-07-30T10:59:52.216Z,1003.09
2017-07-30T11:01:04.581Z,1003.18
2017-07-30T11:02:16.884Z,1003.14
2017-07-30T11:03:29.485Z,1003.18
2017-07-30T11:04:42.032Z,1003.17
2017-07-30T11:05:54.336Z,1003.17
2017-07-30T11:07:06.649Z,1003.18
2017-07-30T11:08:19.282Z,1003.18
2017-07-30T11:09:31.922Z,1003.17
2017-07-30T11:10:43.927Z,1003.14
2017-07-30T11:11:56.232Z,1003.06
2017-07-30T11:13:08.521Z,1003.09
2017-07-30T11:14:21.124Z,1003.03
2017-07-30T11:15:33.703Z,1003.03
2017-07-30T11:16:46.313Z,1002.97
2017-07-30T11:17:58.883Z,1002.94
2017-07-30T11:19:11.495Z,1002.95
2017-07-30T11:20:24.079Z,1003
2017-07-30T11:21:36.725Z,1002.89
2017-07-30T11:22:49.385Z,1002.92
2017-07-30T11:24:01.675Z,1002.88
2017-07-30T11:25:14.552Z,1002.92
2017-07-30T11:26:26.846Z,1002.89
2017-07-30T11:27:39.487Z,1002.87
2017-07-30T11:28:51.818Z,1002.77
2017-07-30T11:30:04.477Z,1002.79
2017-07-30T11:31:16.536Z,1002.78
2017-07-30T11:32:29.170Z,1002.79
2017-07-30T11:33:41.776Z,1002.82
2017-07-30T11:34:54.122Z,1002.78
2017-07-30T11:36:06.790Z,1002.82
2017-07-30T11:37:19.378Z,1002.75
2017-07-30T11:38:31.975Z,1002.78
2017-07-30T11:39:44.295Z,1002.78
2017-07-30T11:40:56.528Z,1002.69
2017-07-30T11:42:08.869Z,1002.74
2017-07-30T11:43:21.208Z,1002.74
2017-07-30T11:44:33.240Z,1002.65
2017-07-30T11:45:45.926Z,1002.62
2017-07-30T11:46:58.538Z,1002.62
2017-07-30T11:48:11.165Z,1002.6
2017-07-30T11:49:23.837Z,1002.53
2017-07-30T11:50:36.121Z,1002.52
2017-07-30T11:51:48.435Z,1002.56
2017-07-30T11:53:00.777Z,1002.55
2017-07-30T11:54:13.052Z,1002.55
2017-07-30T11:55:25.655Z,1002.58
2017-07-30T11:56:37.976Z,1002.6
2017-07-30T11:57:50.609Z,1002.57
2017-07-30T11:59:02.905Z,1002.63
2017-07-30T12:00:15.526Z,1002.65
2017-07-30T12:01:27.871Z,1002.61
2017-07-30T12:02:40.118Z,1002.58
2017-07-30T12:03:52.393Z,1002.62
2017-07-30T12:05:05.038Z,1002.63
2017-07-30T12:06:17.671Z,1002.6
2017-07-30T12:07:29.726Z,1002.68
2017-07-30T12:08:42.352Z,1002.67
2017-07-30T12:09:54.643Z,1002.67
2017-07-30T12:11:07.006Z,1002.63
2017-07-30T12:12:19.617Z,1002.63
2017-07-30T12:13:31.944Z,1002.63
2017-07-30T12:14:44.283Z,1002.64
2017-07-30T12:15:56.890Z,1002.65
2017-07-30T12:17:09.497Z,1002.66
2017-07-30T12:18:22.232Z,1002.65
2017-07-30T12:19:34.873Z,1002.68
2017-07-30T12:20:47.464Z,1002.65
2017-07-30T12:21:59.804Z,1002.67
2017-07-30T12:23:12.413Z,1002.65
2017-07-30T12:24:25.082Z,1002.75
2017-07-30T12:25:37.676Z,1002.68
2017-07-30T12:26:49.986Z,1002.73
2017-07-30T12:28:02.339Z,1002.62
2017-07-30T12:29:15.004Z,1002.67
2017-07-30T12:30:27.323Z,1002.74
2017-07-30T12:31:39.669Z,1002.73
2017-07-30T12:32:52.252Z,1002.7
2017-07-30T12:34:04.599Z,1002.76
2017-07-30T12:35:17.222Z,1002.69
2017-07-30T12:36:29.514Z,1002.62
2017-07-30T12:37:41.565Z,1002.55
2017-07-30T12:38:53.595Z,1002.68
2017-07-30T12:40:06.249Z,1002.59
2017-07-30T12:41:18.862Z,1002.62
2017-07-30T12:42:30.889Z,1002.67
2017-07-30T12:43:43.479Z,1002.7
2017-07-30T12:44:56.079Z,1002.8
2017-07-30T12:46:08.072Z,1002.86
2017-07-30T12:47:20.047Z,1002.97
2017-07-30T12:48:32.314Z,1002.88
2017-07-30T12:49:44.594Z,1003.01
2017-07-30T12:50:56.590Z,1002.96
2017-07-30T12:52:09.179Z,1002.94
2017-07-30T12:53:21.871Z,1002.93
2017-07-30T12:54:33.916Z,1002.87
2017-07-30T12:55:46.591Z,1002.73
2017-07-30T12:56:59.208Z,1002.65
2017-07-30T12:58:11.817Z,1002.64
2017-07-30T12:59:24.407Z,1002.63
2017-07-30T13:00:36.984Z,1002.61
2017-07-30T13:01:48.693Z,1002.61
2017-07-30T13:03:01.067Z,1002.63
2017-07-30T13:04:13.671Z,1002.61
2017-07-30T13:05:26.278Z,1002.72
2017-07-30T13:06:38.227Z,1002.67
2017-07-30T13:07:50.198Z,1002.63
2017-07-30T13:09:02.522Z,1002.62
2017-07-30T13:10:14.797Z,1002.64
2017-07-30T13:11:27.485Z,1002.65
2017-07-30T13:12:39.481Z,1002.65
2017-07-30T13:13:51.853Z,1002.62
2017-07-30T13:15:04.409Z,1002.52
2017-07-30T13:16:17.143Z,1002.59
2017-07-30T13:17:29.725Z,1002.6
2017-07-30T13:18:42.061Z,1002.78
2017-07-30T13:19:54.380Z,1002.73
2017-07-30T13:21:07.002Z,1002.71
2017-07-30T13:22:19.298Z,1002.68
2017-07-30T13:23:31.319Z,1002.62
2017-07-30T13:24:43.978Z,1002.71
2017-07-30T13:25:56.264Z,1002.72
2017-07-30T13:27:08.286Z,1002.74
2017-07-30T13:28:20.878Z,1002.59
2017-07-30T13:29:33.449Z,1002.55
2017-07-30T13:30:45.763Z,1002.64
2017-07-30T13:31:58.322Z,1002.59
2017-07-30T13:33:10.705Z,1002.69
2017-07-30T13:34:23.337Z,1002.63
2017-07-30T13:35:35.610Z,1002.56
2017-07-30T13:36:48.285Z,1002.55
2017-07-30T13:38:00.602Z,1002.55
2017-07-30T13:39:12.627Z,1002.49
2017-07-30T13:40:25.499Z,1002.52
2017-07-30T13:41:37.887Z,1002.51
2017-07-30T13:42:50.230Z,1002.48
2017-07-30T13:44:02.524Z,1002.46
2017-07-30T13:45:14.828Z,1002.45
2017-07-30T13:46:26.818Z,1002.43
2017-07-30T13:47:39.412Z,1002.44
2017-07-30T13:48:52.070Z,1002.38
2017-07-30T13:50:04.340Z,1002.37
2017-07-30T13:51:17.062Z,1002.4
2017-07-30T13:52:29.398Z,1002.35
2017-07-30T13:53:41.773Z,1002.33
2017-07-30T13:54:54.013Z,1002.33
2017-07-30T13:56:05.710Z,1002.45
2017-07-30T13:57:18.033Z,1002.43
2017-07-30T13:58:30.697Z,1002.48
2017-07-30T13:59:42.728Z,1002.41
2017-07-30T14:00:55.052Z,1002.46
2017-07-30T14:02:07.412Z,1002.4
2017-07-30T14:03:19.711Z,1002.52
2017-07-30T14:04:32.360Z,1002.4
2017-07-30T14:05:45.018Z,1002.49
2017-07-30T14:06:57.022Z,1002.31
2017-07-30T14:08:09.609Z,1002.51
2017-07-30T14:09:21.281Z,1002.38
2017-07-30T14:10:33.560Z,1002.34
2017-07-30T14:11:45.257Z,1002.29
2017-07-30T14:12:57.869Z,1002.34
2017-07-30T14:14:10.475Z,1002.42
2017-07-30T14:15:23.105Z,1002.45
2017-07-30T14:16:35.372Z,1002.43
2017-07-30T14:17:47.735Z,1002.58
2017-07-30T14:19:00.043Z,1002.49
2017-07-30T14:20:12.764Z,1002.51
2017-07-30T14:21:25.359Z,1002.6
2017-07-30T14:22:38.006Z,1002.58
2017-07-30T14:23:50.327Z,1002.42
2017-07-30T14:25:03.010Z,1002.2
2017-07-30T14:26:15.368Z,1002.13
2017-07-30T14:27:27.965Z,1002.16
2017-07-30T14:28:39.974Z,1002.19
2017-07-30T14:29:52.502Z,1002.19
2017-07-30T14:31:04.758Z,1002.22
2017-07-30T14:32:17.352Z,1002.16
2017-07-30T14:33:29.981Z,1002.22
2017-07-30T14:34:42.565Z,1002.2
2017-07-30T14:35:54.910Z,1002.21
2017-07-30T14:37:07.254Z,1002.23
2017-07-30T14:38:19.815Z,1002.22
2017-07-30T14:39:32.380Z,1002.34